sensor_id;sensor_type;location;lat;lon;timestamp;P1;durP1;ratioP1;P2;durP2;ratioP2
47413;SDS011;33163;0.000;0.000;2023-08-30T00:00:23;2.05;;;1.73;;
47413;SDS011;33163;0.000;0.000;2023-08-30T00:02:50;3.00;;;1.98;;
47413;SDS011;33163;0.000;0.000;2023-08-30T00:05:17;5.22;;;2.00;;
47413;SDS011;33163;0.000;0.000;2023-08-30T00:07:44;4.65;;;1.88;;
47413;SDS011;33163;0.000;0.000;2023-08-30T00:10:11;1.88;;;1.33;;
47413;SDS011;33163;0.000;0.000;2023-08-30T00:12:37;2.28;;;1.73;;
47413;SDS011;33163;0.000;0.000;2023-08-30T00:15:06;4.35;;;1.88;;
47413;SDS011;33163;0.000;0.000;2023-08-30T00:17:33;2.15;;;1.63;;
47413;SDS011;33163;0.000;0.000;2023-08-30T00:20:00;3.42;;;1.88;;
47413;SDS011;33163;0.000;0.000;2023-08-30T00:22:27;3.30;;;2.10;;
47413;SDS011;33163;0.000;0.000;2023-08-30T00:24:54;5.00;;;2.05;;
47413;SDS011;33163;0.000;0.000;2023-08-30T00:27:21;3.67;;;1.90;;
47413;SDS011;33163;0.000;0.000;2023-08-30T00:29:48;2.45;;;1.70;;
47413;SDS011;33163;0.000;0.000;2023-08-30T00:32:16;3.90;;;1.75;;
47413;SDS011;33163;0.000;0.000;2023-08-30T00:34:42;2.42;;;1.77;;
47413;SDS011;33163;0.000;0.000;2023-08-30T00:37:09;2.83;;;2.17;;
47413;SDS011;33163;0.000;0.000;2023-08-30T00:39:37;2.25;;;1.90;;
47413;SDS011;33163;0.000;0.000;2023-08-30T00:42:04;1.58;;;1.45;;
47413;SDS011;33163;0.000;0.000;2023-08-30T00:44:32;2.78;;;1.90;;
47413;SDS011;33163;0.000;0.000;2023-08-30T00:46:59;2.88;;;1.92;;
47413;SDS011;33163;0.000;0.000;2023-08-30T00:49:27;3.55;;;2.22;;
47413;SDS011;33163;0.000;0.000;2023-08-30T00:51:55;3.10;;;2.13;;
47413;SDS011;33163;0.000;0.000;2023-08-30T00:54:23;2.80;;;2.00;;
47413;SDS011;33163;0.000;0.000;2023-08-30T00:56:50;3.22;;;2.25;;
47413;SDS011;33163;0.000;0.000;2023-08-30T00:59:17;4.00;;;2.35;;
47413;SDS011;33163;0.000;0.000;2023-08-30T01:01:44;2.75;;;2.10;;
47413;SDS011;33163;0.000;0.000;2023-08-30T01:04:11;2.10;;;1.90;;
47413;SDS011;33163;0.000;0.000;2023-08-30T01:06:40;3.60;;;1.90;;
47413;SDS011;33163;0.000;0.000;2023-08-30T01:09:08;2.67;;;1.73;;
47413;SDS011;33163;0.000;0.000;2023-08-30T01:11:36;3.30;;;1.92;;
47413;SDS011;33163;0.000;0.000;2023-08-30T01:14:11;4.15;;;1.95;;
47413;SDS011;33163;0.000;0.000;2023-08-30T01:16:41;4.60;;;2.00;;
47413;SDS011;33163;0.000;0.000;2023-08-30T01:19:13;4.32;;;1.88;;
47413;SDS011;33163;0.000;0.000;2023-08-30T01:22:05;2.63;;;2.13;;
47413;SDS011;33163;0.000;0.000;2023-08-30T01:24:40;2.25;;;1.92;;
47413;SDS011;33163;0.000;0.000;2023-08-30T01:27:12;2.67;;;1.77;;
47413;SDS011;33163;0.000;0.000;2023-08-30T01:29:43;2.47;;;2.10;;
47413;SDS011;33163;0.000;0.000;2023-08-30T01:32:11;3.60;;;2.40;;
47413;SDS011;33163;0.000;0.000;2023-08-30T01:34:39;2.55;;;1.98;;
47413;SDS011;33163;0.000;0.000;2023-08-30T01:37:08;4.05;;;2.17;;
47413;SDS011;33163;0.000;0.000;2023-08-30T01:39:36;4.18;;;2.30;;
47413;SDS011;33163;0.000;0.000;2023-08-30T01:42:04;3.95;;;2.15;;
47413;SDS011;33163;0.000;0.000;2023-08-30T01:44:33;3.08;;;2.25;;
47413;SDS011;33163;0.000;0.000;2023-08-30T01:47:01;4.43;;;2.50;;
47413;SDS011;33163;0.000;0.000;2023-08-30T01:49:29;2.75;;;1.95;;
47413;SDS011;33163;0.000;0.000;2023-08-30T01:51:57;5.65;;;2.10;;
47413;SDS011;33163;0.000;0.000;2023-08-30T01:54:25;3.17;;;2.15;;
47413;SDS011;33163;0.000;0.000;2023-08-30T01:56:54;5.15;;;2.25;;
47413;SDS011;33163;0.000;0.000;2023-08-30T01:59:22;2.72;;;2.22;;
47413;SDS011;33163;0.000;0.000;2023-08-30T02:01:52;3.42;;;2.38;;
47413;SDS011;33163;0.000;0.000;2023-08-30T02:04:18;4.82;;;2.58;;
47413;SDS011;33163;0.000;0.000;2023-08-30T02:06:46;2.20;;;1.88;;
47413;SDS011;33163;0.000;0.000;2023-08-30T02:09:17;2.50;;;2.20;;
47413;SDS011;33163;0.000;0.000;2023-08-30T02:11:50;3.78;;;2.10;;
47413;SDS011;33163;0.000;0.000;2023-08-30T02:14:18;3.72;;;2.30;;
47413;SDS011;33163;0.000;0.000;2023-08-30T02:16:47;3.35;;;2.38;;
47413;SDS011;33163;0.000;0.000;2023-08-30T02:19:15;2.90;;;2.00;;
47413;SDS011;33163;0.000;0.000;2023-08-30T02:21:46;4.47;;;2.03;;
47413;SDS011;33163;0.000;0.000;2023-08-30T02:24:13;2.85;;;2.08;;
47413;SDS011;33163;0.000;0.000;2023-08-30T02:26:39;3.20;;;1.90;;
47413;SDS011;33163;0.000;0.000;2023-08-30T02:29:06;2.47;;;1.63;;
47413;SDS011;33163;0.000;0.000;2023-08-30T02:31:35;3.60;;;2.08;;
47413;SDS011;33163;0.000;0.000;2023-08-30T02:34:01;3.45;;;1.95;;
47413;SDS011;33163;0.000;0.000;2023-08-30T02:36:30;3.28;;;2.00;;
47413;SDS011;33163;0.000;0.000;2023-08-30T02:38:56;2.80;;;2.15;;
47413;SDS011;33163;0.000;0.000;2023-08-30T02:41:23;2.38;;;1.75;;
47413;SDS011;33163;0.000;0.000;2023-08-30T02:43:50;3.65;;;2.22;;
47413;SDS011;33163;0.000;0.000;2023-08-30T02:46:16;1.70;;;1.60;;
47413;SDS011;33163;0.000;0.000;2023-08-30T02:48:43;1.67;;;1.50;;
47413;SDS011;33163;0.000;0.000;2023-08-30T02:51:10;2.47;;;1.98;;
47413;SDS011;33163;0.000;0.000;2023-08-30T02:53:38;3.13;;;2.05;;
47413;SDS011;33163;0.000;0.000;2023-08-30T02:56:05;3.35;;;1.98;;
47413;SDS011;33163;0.000;0.000;2023-08-30T02:58:31;6.03;;;1.92;;
47413;SDS011;33163;0.000;0.000;2023-08-30T03:00:59;3.78;;;1.92;;
47413;SDS011;33163;0.000;0.000;2023-08-30T03:03:26;2.20;;;1.90;;
47413;SDS011;33163;0.000;0.000;2023-08-30T03:05:53;3.60;;;2.10;;
47413;SDS011;33163;0.000;0.000;2023-08-30T03:08:19;3.78;;;2.03;;
47413;SDS011;33163;0.000;0.000;2023-08-30T03:10:47;3.13;;;1.90;;
47413;SDS011;33163;0.000;0.000;2023-08-30T03:13:14;2.45;;;1.95;;
47413;SDS011;33163;0.000;0.000;2023-08-30T03:15:41;3.38;;;1.90;;
47413;SDS011;33163;0.000;0.000;2023-08-30T03:18:08;2.53;;;2.00;;
47413;SDS011;33163;0.000;0.000;2023-08-30T03:20:34;2.22;;;2.03;;
47413;SDS011;33163;0.000;0.000;2023-08-30T03:23:01;3.10;;;1.90;;
47413;SDS011;33163;0.000;0.000;2023-08-30T03:25:28;3.00;;;2.10;;
47413;SDS011;33163;0.000;0.000;2023-08-30T03:27:56;3.03;;;2.05;;
47413;SDS011;33163;0.000;0.000;2023-08-30T03:30:22;4.97;;;2.22;;
47413;SDS011;33163;0.000;0.000;2023-08-30T03:32:49;2.97;;;2.00;;
47413;SDS011;33163;0.000;0.000;2023-08-30T03:35:16;2.88;;;2.05;;
47413;SDS011;33163;0.000;0.000;2023-08-30T03:37:45;4.13;;;2.50;;
47413;SDS011;33163;0.000;0.000;2023-08-30T03:40:12;2.03;;;1.60;;
47413;SDS011;33163;0.000;0.000;2023-08-30T03:42:39;3.78;;;2.20;;
47413;SDS011;33163;0.000;0.000;2023-08-30T03:45:08;4.25;;;2.13;;
47413;SDS011;33163;0.000;0.000;2023-08-30T03:47:35;2.83;;;2.33;;
47413;SDS011;33163;0.000;0.000;2023-08-30T03:50:01;3.30;;;1.92;;
47413;SDS011;33163;0.000;0.000;2023-08-30T03:52:28;2.45;;;1.83;;
47413;SDS011;33163;0.000;0.000;2023-08-30T03:54:55;3.97;;;2.33;;
47413;SDS011;33163;0.000;0.000;2023-08-30T03:57:22;2.97;;;2.30;;
47413;SDS011;33163;0.000;0.000;2023-08-30T03:59:48;3.95;;;2.05;;
47413;SDS011;33163;0.000;0.000;2023-08-30T04:02:17;2.88;;;1.98;;
47413;SDS011;33163;0.000;0.000;2023-08-30T04:04:46;3.88;;;1.75;;
47413;SDS011;33163;0.000;0.000;2023-08-30T04:07:13;3.20;;;2.33;;
47413;SDS011;33163;0.000;0.000;2023-08-30T04:09:40;2.97;;;2.17;;
47413;SDS011;33163;0.000;0.000;2023-08-30T04:12:07;3.15;;;2.30;;
47413;SDS011;33163;0.000;0.000;2023-08-30T04:14:34;3.42;;;2.10;;
47413;SDS011;33163;0.000;0.000;2023-08-30T04:17:00;2.55;;;2.13;;
47413;SDS011;33163;0.000;0.000;2023-08-30T04:19:29;2.85;;;1.98;;
47413;SDS011;33163;0.000;0.000;2023-08-30T04:21:55;2.40;;;1.80;;
47413;SDS011;33163;0.000;0.000;2023-08-30T04:24:22;4.68;;;2.20;;
47413;SDS011;33163;0.000;0.000;2023-08-30T04:26:49;2.53;;;1.98;;
47413;SDS011;33163;0.000;0.000;2023-08-30T04:29:18;3.50;;;2.20;;
47413;SDS011;33163;0.000;0.000;2023-08-30T04:31:45;3.63;;;1.92;;
47413;SDS011;33163;0.000;0.000;2023-08-30T04:34:11;1.88;;;1.70;;
47413;SDS011;33163;0.000;0.000;2023-08-30T04:36:39;3.97;;;2.30;;
47413;SDS011;33163;0.000;0.000;2023-08-30T04:39:06;3.15;;;2.17;;
47413;SDS011;33163;0.000;0.000;2023-08-30T04:41:34;1.83;;;1.67;;
47413;SDS011;33163;0.000;0.000;2023-08-30T04:44:00;3.55;;;2.40;;
47413;SDS011;33163;0.000;0.000;2023-08-30T04:46:27;3.80;;;2.05;;
47413;SDS011;33163;0.000;0.000;2023-08-30T04:48:54;2.90;;;2.08;;
47413;SDS011;33163;0.000;0.000;2023-08-30T04:51:21;2.30;;;1.90;;
47413;SDS011;33163;0.000;0.000;2023-08-30T04:53:49;3.53;;;2.40;;
47413;SDS011;33163;0.000;0.000;2023-08-30T04:56:15;3.22;;;2.25;;
47413;SDS011;33163;0.000;0.000;2023-08-30T04:58:43;4.68;;;2.20;;
47413;SDS011;33163;0.000;0.000;2023-08-30T05:01:10;3.13;;;2.13;;
47413;SDS011;33163;0.000;0.000;2023-08-30T05:03:38;2.83;;;1.88;;
47413;SDS011;33163;0.000;0.000;2023-08-30T05:06:05;3.15;;;1.95;;
47413;SDS011;33163;0.000;0.000;2023-08-30T05:08:32;3.08;;;2.22;;
47413;SDS011;33163;0.000;0.000;2023-08-30T05:11:00;3.80;;;2.35;;
47413;SDS011;33163;0.000;0.000;2023-08-30T05:13:28;2.10;;;1.77;;
47413;SDS011;33163;0.000;0.000;2023-08-30T05:15:54;3.67;;;2.42;;
47413;SDS011;33163;0.000;0.000;2023-08-30T05:18:21;2.75;;;2.30;;
47413;SDS011;33163;0.000;0.000;2023-08-30T05:20:48;6.18;;;2.42;;
47413;SDS011;33163;0.000;0.000;2023-08-30T05:23:15;2.67;;;2.10;;
47413;SDS011;33163;0.000;0.000;2023-08-30T05:25:41;2.97;;;1.95;;
47413;SDS011;33163;0.000;0.000;2023-08-30T05:28:09;5.47;;;2.42;;
47413;SDS011;33163;0.000;0.000;2023-08-30T05:30:38;6.50;;;2.70;;
47413;SDS011;33163;0.000;0.000;2023-08-30T05:33:07;3.10;;;2.17;;
47413;SDS011;33163;0.000;0.000;2023-08-30T05:35:34;4.20;;;2.70;;
47413;SDS011;33163;0.000;0.000;2023-08-30T05:38:01;6.57;;;2.55;;
47413;SDS011;33163;0.000;0.000;2023-08-30T05:40:28;7.35;;;2.30;;
47413;SDS011;33163;0.000;0.000;2023-08-30T05:42:54;5.03;;;2.78;;
47413;SDS011;33163;0.000;0.000;2023-08-30T05:45:22;5.05;;;2.28;;
47413;SDS011;33163;0.000;0.000;2023-08-30T05:47:49;6.68;;;2.58;;
47413;SDS011;33163;0.000;0.000;2023-08-30T05:50:16;3.15;;;2.38;;
47413;SDS011;33163;0.000;0.000;2023-08-30T05:52:43;8.70;;;3.00;;
47413;SDS011;33163;0.000;0.000;2023-08-30T05:55:10;4.15;;;2.22;;
47413;SDS011;33163;0.000;0.000;2023-08-30T05:57:37;4.57;;;2.42;;
47413;SDS011;33163;0.000;0.000;2023-08-30T06:00:04;4.28;;;2.10;;
47413;SDS011;33163;0.000;0.000;2023-08-30T06:02:34;3.83;;;2.38;;
47413;SDS011;33163;0.000;0.000;2023-08-30T06:05:00;5.65;;;2.80;;
47413;SDS011;33163;0.000;0.000;2023-08-30T06:07:27;8.45;;;2.70;;
47413;SDS011;33163;0.000;0.000;2023-08-30T06:09:54;5.00;;;2.53;;
47413;SDS011;33163;0.000;0.000;2023-08-30T06:12:21;7.80;;;3.33;;
47413;SDS011;33163;0.000;0.000;2023-08-30T06:14:48;7.13;;;2.65;;
47413;SDS011;33163;0.000;0.000;2023-08-30T06:17:17;4.22;;;2.47;;
47413;SDS011;33163;0.000;0.000;2023-08-30T06:19:46;10.55;;;3.10;;
47413;SDS011;33163;0.000;0.000;2023-08-30T06:22:13;5.50;;;2.75;;
47413;SDS011;33163;0.000;0.000;2023-08-30T06:24:40;8.27;;;3.20;;
47413;SDS011;33163;0.000;0.000;2023-08-30T06:27:06;5.78;;;2.92;;
47413;SDS011;33163;0.000;0.000;2023-08-30T06:29:33;15.82;;;3.55;;
47413;SDS011;33163;0.000;0.000;2023-08-30T06:32:00;7.18;;;2.30;;
47413;SDS011;33163;0.000;0.000;2023-08-30T06:34:27;9.32;;;3.08;;
47413;SDS011;33163;0.000;0.000;2023-08-30T06:36:55;7.20;;;2.88;;
47413;SDS011;33163;0.000;0.000;2023-08-30T06:39:22;6.78;;;2.70;;
47413;SDS011;33163;0.000;0.000;2023-08-30T06:41:49;6.57;;;2.97;;
47413;SDS011;33163;0.000;0.000;2023-08-30T06:44:15;4.65;;;2.30;;
47413;SDS011;33163;0.000;0.000;2023-08-30T06:46:43;7.28;;;2.65;;
47413;SDS011;33163;0.000;0.000;2023-08-30T06:49:09;9.95;;;3.33;;
47413;SDS011;33163;0.000;0.000;2023-08-30T06:51:36;6.78;;;2.22;;
47413;SDS011;33163;0.000;0.000;2023-08-30T06:54:04;11.60;;;3.17;;
47413;SDS011;33163;0.000;0.000;2023-08-30T06:56:31;8.18;;;3.00;;
47413;SDS011;33163;0.000;0.000;2023-08-30T06:58:58;7.10;;;2.75;;
47413;SDS011;33163;0.000;0.000;2023-08-30T07:01:25;5.97;;;2.95;;
47413;SDS011;33163;0.000;0.000;2023-08-30T07:03:51;5.03;;;2.60;;
47413;SDS011;33163;0.000;0.000;2023-08-30T07:06:18;3.63;;;2.10;;
47413;SDS011;33163;0.000;0.000;2023-08-30T07:08:45;4.35;;;2.60;;
47413;SDS011;33163;0.000;0.000;2023-08-30T07:11:13;5.95;;;2.40;;
47413;SDS011;33163;0.000;0.000;2023-08-30T07:13:40;9.90;;;2.83;;
47413;SDS011;33163;0.000;0.000;2023-08-30T07:16:06;2.78;;;2.20;;
47413;SDS011;33163;0.000;0.000;2023-08-30T07:18:34;4.22;;;2.55;;
47413;SDS011;33163;0.000;0.000;2023-08-30T07:21:00;7.32;;;2.65;;
47413;SDS011;33163;0.000;0.000;2023-08-30T07:23:28;5.00;;;2.58;;
47413;SDS011;33163;0.000;0.000;2023-08-30T07:25:55;3.67;;;2.15;;
47413;SDS011;33163;0.000;0.000;2023-08-30T07:28:23;3.13;;;2.20;;
47413;SDS011;33163;0.000;0.000;2023-08-30T07:30:50;8.15;;;2.42;;
47413;SDS011;33163;0.000;0.000;2023-08-30T07:33:17;3.42;;;2.33;;
47413;SDS011;33163;0.000;0.000;2023-08-30T07:35:43;3.30;;;2.10;;
47413;SDS011;33163;0.000;0.000;2023-08-30T07:38:10;3.83;;;2.00;;
47413;SDS011;33163;0.000;0.000;2023-08-30T07:40:37;4.03;;;2.35;;
47413;SDS011;33163;0.000;0.000;2023-08-30T07:43:04;3.83;;;1.98;;
47413;SDS011;33163;0.000;0.000;2023-08-30T07:45:32;3.05;;;2.38;;
47413;SDS011;33163;0.000;0.000;2023-08-30T07:47:58;3.67;;;2.33;;
47413;SDS011;33163;0.000;0.000;2023-08-30T07:50:25;9.75;;;2.45;;
47413;SDS011;33163;0.000;0.000;2023-08-30T07:52:52;5.63;;;2.22;;
47413;SDS011;33163;0.000;0.000;2023-08-30T07:55:19;3.47;;;2.20;;
47413;SDS011;33163;0.000;0.000;2023-08-30T07:57:46;5.25;;;2.20;;
47413;SDS011;33163;0.000;0.000;2023-08-30T08:00:13;4.88;;;2.30;;
47413;SDS011;33163;0.000;0.000;2023-08-30T08:02:41;4.72;;;1.80;;
47413;SDS011;33163;0.000;0.000;2023-08-30T08:05:08;5.40;;;2.22;;
47413;SDS011;33163;0.000;0.000;2023-08-30T08:07:37;2.47;;;2.00;;
47413;SDS011;33163;0.000;0.000;2023-08-30T08:10:05;3.75;;;2.13;;
47413;SDS011;33163;0.000;0.000;2023-08-30T08:12:32;7.13;;;2.05;;
47413;SDS011;33163;0.000;0.000;2023-08-30T08:14:59;3.03;;;1.85;;
47413;SDS011;33163;0.000;0.000;2023-08-30T08:17:26;4.88;;;2.20;;
47413;SDS011;33163;0.000;0.000;2023-08-30T08:19:54;4.07;;;2.10;;
47413;SDS011;33163;0.000;0.000;2023-08-30T08:22:21;7.00;;;2.33;;
47413;SDS011;33163;0.000;0.000;2023-08-30T08:24:48;4.13;;;2.00;;
47413;SDS011;33163;0.000;0.000;2023-08-30T08:27:16;3.95;;;2.00;;
47413;SDS011;33163;0.000;0.000;2023-08-30T08:29:43;3.42;;;2.13;;
47413;SDS011;33163;0.000;0.000;2023-08-30T08:32:10;4.60;;;1.88;;
47413;SDS011;33163;0.000;0.000;2023-08-30T08:34:36;2.80;;;2.05;;
47413;SDS011;33163;0.000;0.000;2023-08-30T08:37:04;3.67;;;2.15;;
47413;SDS011;33163;0.000;0.000;2023-08-30T08:39:32;4.35;;;2.40;;
47413;SDS011;33163;0.000;0.000;2023-08-30T08:42:01;3.13;;;2.08;;
47413;SDS011;33163;0.000;0.000;2023-08-30T08:44:31;3.85;;;2.00;;
47413;SDS011;33163;0.000;0.000;2023-08-30T08:46:58;3.95;;;1.95;;
47413;SDS011;33163;0.000;0.000;2023-08-30T08:49:25;4.18;;;2.05;;
47413;SDS011;33163;0.000;0.000;2023-08-30T08:51:54;2.95;;;2.03;;
47413;SDS011;33163;0.000;0.000;2023-08-30T08:54:22;5.88;;;2.38;;
47413;SDS011;33163;0.000;0.000;2023-08-30T08:56:49;4.60;;;2.13;;
47413;SDS011;33163;0.000;0.000;2023-08-30T08:59:16;5.47;;;2.20;;
47413;SDS011;33163;0.000;0.000;2023-08-30T09:01:45;4.70;;;2.20;;
47413;SDS011;33163;0.000;0.000;2023-08-30T09:04:12;4.88;;;2.35;;
47413;SDS011;33163;0.000;0.000;2023-08-30T09:06:39;4.13;;;2.05;;
47413;SDS011;33163;0.000;0.000;2023-08-30T09:09:06;4.85;;;2.00;;
47413;SDS011;33163;0.000;0.000;2023-08-30T09:11:35;5.32;;;2.22;;
47413;SDS011;33163;0.000;0.000;2023-08-30T09:14:02;4.10;;;2.17;;
47413;SDS011;33163;0.000;0.000;2023-08-30T09:16:29;5.50;;;2.50;;
47413;SDS011;33163;0.000;0.000;2023-08-30T09:18:59;5.28;;;2.65;;
47413;SDS011;33163;0.000;0.000;2023-08-30T09:21:27;4.85;;;2.47;;
47413;SDS011;33163;0.000;0.000;2023-08-30T09:23:58;2.92;;;2.22;;
47413;SDS011;33163;0.000;0.000;2023-08-30T09:26:25;5.35;;;2.10;;
47413;SDS011;33163;0.000;0.000;2023-08-30T09:28:54;7.07;;;2.22;;
47413;SDS011;33163;0.000;0.000;2023-08-30T09:31:21;5.50;;;2.35;;
47413;SDS011;33163;0.000;0.000;2023-08-30T09:33:48;4.72;;;2.28;;
47413;SDS011;33163;0.000;0.000;2023-08-30T09:36:15;9.02;;;2.10;;
47413;SDS011;33163;0.000;0.000;2023-08-30T09:38:47;6.20;;;2.17;;
47413;SDS011;33163;0.000;0.000;2023-08-30T09:41:15;3.90;;;1.95;;
47413;SDS011;33163;0.000;0.000;2023-08-30T09:43:42;3.25;;;2.00;;
47413;SDS011;33163;0.000;0.000;2023-08-30T09:46:11;5.95;;;2.05;;
47413;SDS011;33163;0.000;0.000;2023-08-30T09:48:38;4.75;;;1.80;;
47413;SDS011;33163;0.000;0.000;2023-08-30T09:51:05;3.78;;;2.00;;
47413;SDS011;33163;0.000;0.000;2023-08-30T09:53:36;8.63;;;2.47;;
47413;SDS011;33163;0.000;0.000;2023-08-30T09:56:09;5.70;;;2.65;;
47413;SDS011;33163;0.000;0.000;2023-08-30T09:58:39;4.88;;;2.67;;
47413;SDS011;33163;0.000;0.000;2023-08-30T10:01:07;6.78;;;2.05;;
47413;SDS011;33163;0.000;0.000;2023-08-30T10:03:36;5.10;;;1.90;;
47413;SDS011;33163;0.000;0.000;2023-08-30T10:06:03;5.15;;;2.00;;
47413;SDS011;33163;0.000;0.000;2023-08-30T10:08:31;5.28;;;2.00;;
47413;SDS011;33163;0.000;0.000;2023-08-30T10:11:01;4.30;;;1.90;;
47413;SDS011;33163;0.000;0.000;2023-08-30T10:13:29;4.82;;;2.05;;
47413;SDS011;33163;0.000;0.000;2023-08-30T10:15:58;3.97;;;1.77;;
47413;SDS011;33163;0.000;0.000;2023-08-30T10:18:28;6.63;;;2.28;;
47413;SDS011;33163;0.000;0.000;2023-08-30T10:20:59;8.38;;;2.42;;
47413;SDS011;33163;0.000;0.000;2023-08-30T10:23:28;8.05;;;1.83;;
47413;SDS011;33163;0.000;0.000;2023-08-30T10:25:56;5.40;;;2.50;;
47413;SDS011;33163;0.000;0.000;2023-08-30T10:28:24;7.03;;;1.95;;
47413;SDS011;33163;0.000;0.000;2023-08-30T10:30:52;3.53;;;1.83;;
47413;SDS011;33163;0.000;0.000;2023-08-30T10:33:19;4.38;;;2.35;;
47413;SDS011;33163;0.000;0.000;2023-08-30T10:35:50;8.15;;;2.25;;
47413;SDS011;33163;0.000;0.000;2023-08-30T10:38:27;4.57;;;2.00;;
47413;SDS011;33163;0.000;0.000;2023-08-30T10:40:54;7.82;;;2.50;;
47413;SDS011;33163;0.000;0.000;2023-08-30T10:43:31;3.70;;;2.08;;
47413;SDS011;33163;0.000;0.000;2023-08-30T10:46:02;4.82;;;2.20;;
47413;SDS011;33163;0.000;0.000;2023-08-30T10:48:35;5.55;;;1.80;;
47413;SDS011;33163;0.000;0.000;2023-08-30T10:51:03;5.72;;;2.10;;
47413;SDS011;33163;0.000;0.000;2023-08-30T10:53:33;3.58;;;1.90;;
47413;SDS011;33163;0.000;0.000;2023-08-30T10:56:03;7.40;;;2.42;;
47413;SDS011;33163;0.000;0.000;2023-08-30T10:58:38;3.80;;;1.83;;
47413;SDS011;33163;0.000;0.000;2023-08-30T11:01:07;5.82;;;2.13;;
47413;SDS011;33163;0.000;0.000;2023-08-30T11:03:37;6.30;;;2.20;;
47413;SDS011;33163;0.000;0.000;2023-08-30T11:06:03;3.63;;;1.92;;
47413;SDS011;33163;0.000;0.000;2023-08-30T11:08:30;5.85;;;2.42;;
47413;SDS011;33163;0.000;0.000;2023-08-30T11:11:03;5.90;;;2.15;;
47413;SDS011;33163;0.000;0.000;2023-08-30T11:13:31;4.28;;;1.98;;
47413;SDS011;33163;0.000;0.000;2023-08-30T11:16:01;5.63;;;2.00;;
47413;SDS011;33163;0.000;0.000;2023-08-30T11:18:28;5.15;;;2.28;;
47413;SDS011;33163;0.000;0.000;2023-08-30T11:20:58;5.32;;;2.00;;
47413;SDS011;33163;0.000;0.000;2023-08-30T11:23:26;7.47;;;2.65;;
47413;SDS011;33163;0.000;0.000;2023-08-30T11:25:52;4.30;;;1.70;;
47413;SDS011;33163;0.000;0.000;2023-08-30T11:28:23;4.90;;;1.88;;
47413;SDS011;33163;0.000;0.000;2023-08-30T11:30:52;4.20;;;2.05;;
47413;SDS011;33163;0.000;0.000;2023-08-30T11:33:19;4.85;;;1.80;;
47413;SDS011;33163;0.000;0.000;2023-08-30T11:35:47;5.03;;;2.13;;
47413;SDS011;33163;0.000;0.000;2023-08-30T11:38:15;4.22;;;1.88;;
47413;SDS011;33163;0.000;0.000;2023-08-30T11:40:44;5.32;;;1.92;;
47413;SDS011;33163;0.000;0.000;2023-08-30T11:43:11;3.72;;;1.77;;
47413;SDS011;33163;0.000;0.000;2023-08-30T11:45:39;7.65;;;1.98;;
47413;SDS011;33163;0.000;0.000;2023-08-30T11:48:06;4.82;;;1.80;;
47413;SDS011;33163;0.000;0.000;2023-08-30T11:50:33;6.30;;;2.25;;
47413;SDS011;33163;0.000;0.000;2023-08-30T11:53:01;8.10;;;2.03;;
47413;SDS011;33163;0.000;0.000;2023-08-30T11:55:28;6.47;;;1.92;;
47413;SDS011;33163;0.000;0.000;2023-08-30T11:57:56;4.05;;;1.80;;
47413;SDS011;33163;0.000;0.000;2023-08-30T12:00:23;6.28;;;1.58;;
47413;SDS011;33163;0.000;0.000;2023-08-30T12:02:52;12.90;;;2.40;;
47413;SDS011;33163;0.000;0.000;2023-08-30T12:05:19;4.45;;;1.58;;
47413;SDS011;33163;0.000;0.000;2023-08-30T12:07:46;5.20;;;2.15;;
47413;SDS011;33163;0.000;0.000;2023-08-30T12:10:13;3.78;;;1.80;;
47413;SDS011;33163;0.000;0.000;2023-08-30T12:12:44;7.25;;;1.85;;
47413;SDS011;33163;0.000;0.000;2023-08-30T12:15:12;8.27;;;1.73;;
47413;SDS011;33163;0.000;0.000;2023-08-30T12:17:39;10.18;;;2.28;;
47413;SDS011;33163;0.000;0.000;2023-08-30T12:20:13;13.30;;;2.38;;
47413;SDS011;33163;0.000;0.000;2023-08-30T12:22:41;6.75;;;1.67;;
47413;SDS011;33163;0.000;0.000;2023-08-30T12:25:17;11.30;;;2.55;;
47413;SDS011;33163;0.000;0.000;2023-08-30T12:27:45;5.20;;;2.10;;
47413;SDS011;33163;0.000;0.000;2023-08-30T12:30:13;4.07;;;2.10;;
47413;SDS011;33163;0.000;0.000;2023-08-30T12:32:40;4.40;;;1.60;;
47413;SDS011;33163;0.000;0.000;2023-08-30T12:35:09;3.97;;;1.42;;
47413;SDS011;33163;0.000;0.000;2023-08-30T12:37:36;4.40;;;1.77;;
47413;SDS011;33163;0.000;0.000;2023-08-30T12:40:03;6.35;;;1.35;;
47413;SDS011;33163;0.000;0.000;2023-08-30T12:42:31;4.15;;;1.70;;
47413;SDS011;33163;0.000;0.000;2023-08-30T12:44:58;4.18;;;1.85;;
47413;SDS011;33163;0.000;0.000;2023-08-30T12:47:25;3.88;;;1.60;;
47413;SDS011;33163;0.000;0.000;2023-08-30T12:49:52;4.93;;;1.60;;
47413;SDS011;33163;0.000;0.000;2023-08-30T12:52:21;7.20;;;1.83;;
47413;SDS011;33163;0.000;0.000;2023-08-30T12:54:47;3.45;;;1.90;;
47413;SDS011;33163;0.000;0.000;2023-08-30T12:57:15;4.05;;;1.70;;
47413;SDS011;33163;0.000;0.000;2023-08-30T12:59:42;8.25;;;1.70;;
47413;SDS011;33163;0.000;0.000;2023-08-30T13:02:08;8.35;;;2.05;;
47413;SDS011;33163;0.000;0.000;2023-08-30T13:04:35;5.85;;;1.58;;
47413;SDS011;33163;0.000;0.000;2023-08-30T13:07:03;2.92;;;1.50;;
47413;SDS011;33163;0.000;0.000;2023-08-30T13:09:32;4.18;;;1.50;;
47413;SDS011;33163;0.000;0.000;2023-08-30T13:11:58;6.90;;;1.45;;
47413;SDS011;33163;0.000;0.000;2023-08-30T13:14:25;4.40;;;1.52;;
47413;SDS011;33163;0.000;0.000;2023-08-30T13:16:52;6.07;;;1.40;;
47413;SDS011;33163;0.000;0.000;2023-08-30T13:19:19;2.42;;;1.52;;
47413;SDS011;33163;0.000;0.000;2023-08-30T13:21:46;5.10;;;1.70;;
47413;SDS011;33163;0.000;0.000;2023-08-30T13:24:12;4.20;;;1.33;;
47413;SDS011;33163;0.000;0.000;2023-08-30T13:26:41;7.28;;;1.45;;
47413;SDS011;33163;0.000;0.000;2023-08-30T13:29:09;5.47;;;1.17;;
47413;SDS011;33163;0.000;0.000;2023-08-30T13:31:36;5.10;;;1.60;;
47413;SDS011;33163;0.000;0.000;2023-08-30T13:34:03;6.50;;;1.80;;
47413;SDS011;33163;0.000;0.000;2023-08-30T13:36:30;5.10;;;1.50;;
47413;SDS011;33163;0.000;0.000;2023-08-30T13:38:57;10.63;;;1.88;;
47413;SDS011;33163;0.000;0.000;2023-08-30T13:41:24;9.57;;;1.83;;
47413;SDS011;33163;0.000;0.000;2023-08-30T13:43:52;6.97;;;1.52;;
47413;SDS011;33163;0.000;0.000;2023-08-30T13:46:19;4.13;;;1.40;;
47413;SDS011;33163;0.000;0.000;2023-08-30T13:48:45;4.28;;;1.35;;
47413;SDS011;33163;0.000;0.000;2023-08-30T13:51:13;6.22;;;1.65;;
47413;SDS011;33163;0.000;0.000;2023-08-30T13:53:40;3.70;;;1.65;;
47413;SDS011;33163;0.000;0.000;2023-08-30T13:56:06;9.55;;;1.75;;
47413;SDS011;33163;0.000;0.000;2023-08-30T13:58:33;8.40;;;1.98;;
47413;SDS011;33163;0.000;0.000;2023-08-30T14:01:03;6.13;;;1.90;;
47413;SDS011;33163;0.000;0.000;2023-08-30T14:03:30;8.52;;;1.75;;
47413;SDS011;33163;0.000;0.000;2023-08-30T14:05:57;2.42;;;1.40;;
47413;SDS011;33163;0.000;0.000;2023-08-30T14:08:24;5.80;;;1.52;;
47413;SDS011;33163;0.000;0.000;2023-08-30T14:10:51;4.35;;;0.98;;
47413;SDS011;33163;0.000;0.000;2023-08-30T14:13:18;4.63;;;1.52;;
47413;SDS011;33163;0.000;0.000;2023-08-30T14:15:44;8.77;;;1.40;;
47413;SDS011;33163;0.000;0.000;2023-08-30T14:18:13;3.58;;;1.17;;
47413;SDS011;33163;0.000;0.000;2023-08-30T14:20:40;5.20;;;1.30;;
47413;SDS011;33163;0.000;0.000;2023-08-30T14:23:07;3.95;;;1.40;;
47413;SDS011;33163;0.000;0.000;2023-08-30T14:25:35;3.55;;;1.20;;
47413;SDS011;33163;0.000;0.000;2023-08-30T14:28:02;6.18;;;1.20;;
47413;SDS011;33163;0.000;0.000;2023-08-30T14:30:29;11.88;;;1.98;;
47413;SDS011;33163;0.000;0.000;2023-08-30T14:32:56;4.82;;;1.70;;
47413;SDS011;33163;0.000;0.000;2023-08-30T14:35:24;4.38;;;1.42;;
47413;SDS011;33163;0.000;0.000;2023-08-30T14:37:52;8.57;;;1.45;;
47413;SDS011;33163;0.000;0.000;2023-08-30T14:40:18;4.07;;;1.67;;
47413;SDS011;33163;0.000;0.000;2023-08-30T14:42:45;3.80;;;1.20;;
47413;SDS011;33163;0.000;0.000;2023-08-30T14:45:12;4.57;;;1.33;;
47413;SDS011;33163;0.000;0.000;2023-08-30T14:47:39;7.43;;;1.63;;
47413;SDS011;33163;0.000;0.000;2023-08-30T14:50:06;2.60;;;1.33;;
47413;SDS011;33163;0.000;0.000;2023-08-30T14:52:35;5.18;;;1.30;;
47413;SDS011;33163;0.000;0.000;2023-08-30T14:55:02;5.18;;;1.45;;
47413;SDS011;33163;0.000;0.000;2023-08-30T14:57:29;3.95;;;1.30;;
47413;SDS011;33163;0.000;0.000;2023-08-30T14:59:56;4.72;;;1.50;;
47413;SDS011;33163;0.000;0.000;2023-08-30T15:02:22;4.68;;;1.30;;